sensor_id;sensor_type;location;lat;lon;timestamp;P1;durP1;ratioP1;P2;durP2;ratioP2
39994;SDS011;25686;51.908;10.418;2023-03-01T00:01:53;11.23;;;6.23;;
39994;SDS011;25686;51.908;10.418;2023-03-01T00:03:55;10.53;;;5.73;;
39994;SDS011;25686;51.908;10.418;2023-03-01T00:05:56;11.17;;;6.13;;
39994;SDS011;25686;51.908;10.418;2023-03-01T00:07:57;13.40;;;7.10;;
39994;SDS011;25686;51.908;10.418;2023-03-01T00:09:58;13.63;;;7.10;;
39994;SDS011;25686;51.908;10.418;2023-03-01T00:11:59;12.70;;;7.10;;
39994;SDS011;25686;51.908;10.418;2023-03-01T00:14:00;14.23;;;6.57;;
39994;SDS011;25686;51.908;10.418;2023-03-01T00:16:04;14.30;;;6.03;;
39994;SDS011;25686;51.908;10.418;2023-03-01T00:18:06;13.90;;;6.63;;
39994;SDS011;25686;51.908;10.418;2023-03-01T00:20:08;11.37;;;6.20;;
39994;SDS011;25686;51.908;10.418;2023-03-01T00:22:10;11.03;;;6.50;;
39994;SDS011;25686;51.908;10.418;2023-03-01T00:24:11;11.97;;;6.30;;
39994;SDS011;25686;51.908;10.418;2023-03-01T00:26:12;12.53;;;6.50;;
39994;SDS011;25686;51.908;10.418;2023-03-01T00:28:14;12.50;;;6.60;;
39994;SDS011;25686;51.908;10.418;2023-03-01T00:30:15;13.60;;;6.03;;
39994;SDS011;25686;51.908;10.418;2023-03-01T00:32:16;14.30;;;6.27;;
39994;SDS011;25686;51.908;10.418;2023-03-01T00:34:16;12.67;;;6.13;;
39994;SDS011;25686;51.908;10.418;2023-03-01T00:36:17;12.33;;;6.60;;
39994;SDS011;25686;51.908;10.418;2023-03-01T00:38:18;12.60;;;6.40;;
39994;SDS011;25686;51.908;10.418;2023-03-01T00:40:19;11.27;;;6.23;;
39994;SDS011;25686;51.908;10.418;2023-03-01T00:42:20;14.00;;;7.23;;
39994;SDS011;25686;51.908;10.418;2023-03-01T00:44:22;14.03;;;6.40;;
39994;SDS011;25686;51.908;10.418;2023-03-01T00:46:24;14.10;;;6.53;;
39994;SDS011;25686;51.908;10.418;2023-03-01T00:48:25;13.50;;;6.13;;
39994;SDS011;25686;51.908;10.418;2023-03-01T00:50:26;13.60;;;6.30;;
39994;SDS011;25686;51.908;10.418;2023-03-01T00:52:27;12.67;;;7.03;;
39994;SDS011;25686;51.908;10.418;2023-03-01T00:54:28;12.37;;;6.83;;
39994;SDS011;25686;51.908;10.418;2023-03-01T00:56:29;15.27;;;6.47;;
39994;SDS011;25686;51.908;10.418;2023-03-01T00:58:30;10.80;;;6.10;;
39994;SDS011;25686;51.908;10.418;2023-03-01T01:00:31;11.60;;;6.80;;
39994;SDS011;25686;51.908;10.418;2023-03-01T01:02:33;11.77;;;6.47;;
39994;SDS011;25686;51.908;10.418;2023-03-01T01:04:34;12.10;;;6.60;;
39994;SDS011;25686;51.908;10.418;2023-03-01T01:06:42;11.90;;;6.57;;
39994;SDS011;25686;51.908;10.418;2023-03-01T01:08:43;12.97;;;6.87;;
39994;SDS011;25686;51.908;10.418;2023-03-01T01:10:44;11.70;;;6.40;;
39994;SDS011;25686;51.908;10.418;2023-03-01T01:12:45;12.17;;;6.53;;
39994;SDS011;25686;51.908;10.418;2023-03-01T01:14:46;12.17;;;6.53;;
39994;SDS011;25686;51.908;10.418;2023-03-01T01:16:47;11.33;;;6.23;;
39994;SDS011;25686;51.908;10.418;2023-03-01T01:18:48;11.70;;;6.43;;
39994;SDS011;25686;51.908;10.418;2023-03-01T01:20:50;12.97;;;6.33;;
39994;SDS011;25686;51.908;10.418;2023-03-01T01:22:50;13.70;;;6.23;;
39994;SDS011;25686;51.908;10.418;2023-03-01T01:24:52;11.50;;;6.30;;
39994;SDS011;25686;51.908;10.418;2023-03-01T01:26:53;17.13;;;6.37;;
39994;SDS011;25686;51.908;10.418;2023-03-01T01:28:54;17.70;;;6.83;;
39994;SDS011;25686;51.908;10.418;2023-03-01T01:30:54;14.80;;;6.60;;
39994;SDS011;25686;51.908;10.418;2023-03-01T01:32:55;12.43;;;6.13;;
39994;SDS011;25686;51.908;10.418;2023-03-01T01:34:56;11.57;;;6.20;;
39994;SDS011;25686;51.908;10.418;2023-03-01T01:36:57;11.97;;;6.97;;
39994;SDS011;25686;51.908;10.418;2023-03-01T01:39:02;12.90;;;6.90;;
39994;SDS011;25686;51.908;10.418;2023-03-01T01:41:03;14.00;;;6.53;;
39994;SDS011;25686;51.908;10.418;2023-03-01T01:43:05;11.20;;;6.43;;
39994;SDS011;25686;51.908;10.418;2023-03-01T01:47:28;12.97;;;6.73;;
39994;SDS011;25686;51.908;10.418;2023-03-01T01:49:37;14.43;;;7.20;;
39994;SDS011;25686;51.908;10.418;2023-03-01T01:51:39;13.43;;;6.93;;
39994;SDS011;25686;51.908;10.418;2023-03-01T01:53:41;14.20;;;7.00;;
39994;SDS011;25686;51.908;10.418;2023-03-01T01:55:45;12.33;;;7.00;;
39994;SDS011;25686;51.908;10.418;2023-03-01T01:57:52;16.43;;;7.73;;
39994;SDS011;25686;51.908;10.418;2023-03-01T01:59:54;14.40;;;6.43;;
39994;SDS011;25686;51.908;10.418;2023-03-01T02:01:57;14.13;;;6.97;;
39994;SDS011;25686;51.908;10.418;2023-03-01T02:04:00;15.27;;;7.03;;
39994;SDS011;25686;51.908;10.418;2023-03-01T02:08:05;13.60;;;6.80;;
39994;SDS011;25686;51.908;10.418;2023-03-01T02:10:06;14.77;;;7.27;;
39994;SDS011;25686;51.908;10.418;2023-03-01T02:12:07;12.47;;;6.70;;
39994;SDS011;25686;51.908;10.418;2023-03-01T02:14:08;12.87;;;6.53;;
39994;SDS011;25686;51.908;10.418;2023-03-01T02:16:10;11.97;;;6.60;;
39994;SDS011;25686;51.908;10.418;2023-03-01T02:18:12;14.20;;;6.87;;
39994;SDS011;25686;51.908;10.418;2023-03-01T02:20:23;14.03;;;6.87;;
39994;SDS011;25686;51.908;10.418;2023-03-01T02:22:30;11.97;;;7.00;;
39994;SDS011;25686;51.908;10.418;2023-03-01T02:24:36;14.03;;;7.03;;
39994;SDS011;25686;51.908;10.418;2023-03-01T02:26:41;15.00;;;7.27;;
39994;SDS011;25686;51.908;10.418;2023-03-01T02:28:43;13.03;;;6.47;;
39994;SDS011;25686;51.908;10.418;2023-03-01T02:30:48;11.00;;;6.07;;
39994;SDS011;25686;51.908;10.418;2023-03-01T02:33:09;10.77;;;6.03;;
39994;SDS011;25686;51.908;10.418;2023-03-01T02:35:12;14.07;;;7.00;;
39994;SDS011;25686;51.908;10.418;2023-03-01T02:37:14;13.03;;;6.70;;
39994;SDS011;25686;51.908;10.418;2023-03-01T02:39:27;12.67;;;6.30;;
39994;SDS011;25686;51.908;10.418;2023-03-01T02:41:31;11.80;;;6.13;;
39994;SDS011;25686;51.908;10.418;2023-03-01T02:43:35;14.30;;;6.83;;
39994;SDS011;25686;51.908;10.418;2023-03-01T02:45:36;11.77;;;6.23;;
39994;SDS011;25686;51.908;10.418;2023-03-01T02:47:37;14.87;;;6.13;;
39994;SDS011;25686;51.908;10.418;2023-03-01T02:49:38;11.93;;;6.33;;
39994;SDS011;25686;51.908;10.418;2023-03-01T02:51:52;12.30;;;5.83;;
39994;SDS011;25686;51.908;10.418;2023-03-01T02:53:58;12.57;;;6.23;;
39994;SDS011;25686;51.908;10.418;2023-03-01T02:56:00;10.40;;;5.83;;
39994;SDS011;25686;51.908;10.418;2023-03-01T02:58:01;10.90;;;6.60;;
39994;SDS011;25686;51.908;10.418;2023-03-01T03:00:04;11.97;;;6.20;;
39994;SDS011;25686;51.908;10.418;2023-03-01T03:02:08;13.33;;;6.60;;
39994;SDS011;25686;51.908;10.418;2023-03-01T03:04:20;13.97;;;6.90;;
39994;SDS011;25686;51.908;10.418;2023-03-01T03:06:21;12.60;;;6.53;;
39994;SDS011;25686;51.908;10.418;2023-03-01T03:08:22;12.60;;;6.10;;
39994;SDS011;25686;51.908;10.418;2023-03-01T03:10:25;15.83;;;6.23;;
39994;SDS011;25686;51.908;10.418;2023-03-01T03:12:26;11.93;;;5.90;;
39994;SDS011;25686;51.908;10.418;2023-03-01T03:14:27;10.80;;;6.30;;
39994;SDS011;25686;51.908;10.418;2023-03-01T03:16:28;16.67;;;7.13;;
39994;SDS011;25686;51.908;10.418;2023-03-01T03:18:29;13.47;;;7.60;;
39994;SDS011;25686;51.908;10.418;2023-03-01T03:20:31;13.50;;;6.90;;
39994;SDS011;25686;51.908;10.418;2023-03-01T03:22:32;13.20;;;6.83;;
39994;SDS011;25686;51.908;10.418;2023-03-01T03:24:33;14.33;;;7.10;;
39994;SDS011;25686;51.908;10.418;2023-03-01T03:26:37;14.57;;;6.60;;
39994;SDS011;25686;51.908;10.418;2023-03-01T03:28:38;14.17;;;6.97;;
39994;SDS011;25686;51.908;10.418;2023-03-01T03:30:40;11.47;;;6.63;;
39994;SDS011;25686;51.908;10.418;2023-03-01T03:32:42;13.37;;;6.90;;
39994;SDS011;25686;51.908;10.418;2023-03-01T03:34:51;13.27;;;7.37;;
39994;SDS011;25686;51.908;10.418;2023-03-01T03:36:53;15.73;;;7.60;;
39994;SDS011;25686;51.908;10.418;2023-03-01T03:38:56;13.53;;;7.73;;
39994;SDS011;25686;51.908;10.418;2023-03-01T03:41:01;14.50;;;6.50;;
39994;SDS011;25686;51.908;10.418;2023-03-01T03:43:03;12.33;;;6.37;;
39994;SDS011;25686;51.908;10.418;2023-03-01T03:45:04;15.87;;;7.80;;
39994;SDS011;25686;51.908;10.418;2023-03-01T03:47:05;15.70;;;7.20;;
39994;SDS011;25686;51.908;10.418;2023-03-01T03:49:06;12.50;;;6.30;;
39994;SDS011;25686;51.908;10.418;2023-03-01T03:51:09;16.67;;;7.23;;
39994;SDS011;25686;51.908;10.418;2023-03-01T03:53:11;13.73;;;7.37;;
39994;SDS011;25686;51.908;10.418;2023-03-01T03:55:12;13.20;;;6.70;;
39994;SDS011;25686;51.908;10.418;2023-03-01T03:57:13;12.40;;;6.77;;
39994;SDS011;25686;51.908;10.418;2023-03-01T03:59:14;14.30;;;7.07;;
39994;SDS011;25686;51.908;10.418;2023-03-01T04:01:15;19.67;;;7.57;;
39994;SDS011;25686;51.908;10.418;2023-03-01T04:03:16;13.60;;;6.97;;
39994;SDS011;25686;51.908;10.418;2023-03-01T04:05:18;14.80;;;7.03;;
39994;SDS011;25686;51.908;10.418;2023-03-01T04:07:19;16.23;;;7.70;;
39994;SDS011;25686;51.908;10.418;2023-03-01T04:09:20;16.50;;;8.27;;
39994;SDS011;25686;51.908;10.418;2023-03-01T04:11:21;14.23;;;6.87;;
39994;SDS011;25686;51.908;10.418;2023-03-01T04:13:28;13.10;;;6.37;;
39994;SDS011;25686;51.908;10.418;2023-03-01T04:15:29;14.00;;;7.23;;
39994;SDS011;25686;51.908;10.418;2023-03-01T04:17:31;16.00;;;7.13;;
39994;SDS011;25686;51.908;10.418;2023-03-01T04:19:32;13.77;;;7.20;;
39994;SDS011;25686;51.908;10.418;2023-03-01T04:21:35;13.87;;;7.30;;
39994;SDS011;25686;51.908;10.418;2023-03-01T04:23:37;14.17;;;7.57;;
39994;SDS011;25686;51.908;10.418;2023-03-01T04:25:54;16.87;;;8.13;;
39994;SDS011;25686;51.908;10.418;2023-03-01T04:27:55;16.57;;;7.87;;
39994;SDS011;25686;51.908;10.418;2023-03-01T04:29:56;14.40;;;7.10;;
39994;SDS011;25686;51.908;10.418;2023-03-01T04:31:57;20.30;;;7.70;;
39994;SDS011;25686;51.908;10.418;2023-03-01T04:33:58;13.87;;;7.30;;
39994;SDS011;25686;51.908;10.418;2023-03-01T04:36:00;17.20;;;7.73;;
39994;SDS011;25686;51.908;10.418;2023-03-01T04:38:05;13.97;;;7.10;;
39994;SDS011;25686;51.908;10.418;2023-03-01T04:40:06;16.97;;;8.23;;
39994;SDS011;25686;51.908;10.418;2023-03-01T04:42:16;17.10;;;8.03;;
39994;SDS011;25686;51.908;10.418;2023-03-01T04:44:17;13.43;;;7.50;;
39994;SDS011;25686;51.908;10.418;2023-03-01T04:46:19;17.97;;;7.90;;
39994;SDS011;25686;51.908;10.418;2023-03-01T04:48:21;15.73;;;7.87;;
39994;SDS011;25686;51.908;10.418;2023-03-01T04:50:22;16.07;;;7.97;;
39994;SDS011;25686;51.908;10.418;2023-03-01T04:52:23;15.17;;;7.30;;
39994;SDS011;25686;51.908;10.418;2023-03-01T04:54:24;14.60;;;7.07;;
39994;SDS011;25686;51.908;10.418;2023-03-01T04:56:26;15.73;;;7.23;;
39994;SDS011;25686;51.908;10.418;2023-03-01T04:58:27;15.67;;;6.60;;
39994;SDS011;25686;51.908;10.418;2023-03-01T05:00:28;13.17;;;7.23;;
39994;SDS011;25686;51.908;10.418;2023-03-01T05:02:29;12.90;;;6.53;;
39994;SDS011;25686;51.908;10.418;2023-03-01T05:04:30;13.83;;;6.87;;
39994;SDS011;25686;51.908;10.418;2023-03-01T05:06:31;14.73;;;6.83;;
39994;SDS011;25686;51.908;10.418;2023-03-01T05:08:32;13.40;;;6.80;;
39994;SDS011;25686;51.908;10.418;2023-03-01T05:10:36;17.37;;;8.20;;
39994;SDS011;25686;51.908;10.418;2023-03-01T05:12:38;17.57;;;7.90;;
39994;SDS011;25686;51.908;10.418;2023-03-01T05:14:39;13.80;;;6.73;;
39994;SDS011;25686;51.908;10.418;2023-03-01T05:16:40;16.63;;;7.80;;
39994;SDS011;25686;51.908;10.418;2023-03-01T05:18:41;16.47;;;8.17;;
39994;SDS011;25686;51.908;10.418;2023-03-01T05:20:43;13.63;;;7.40;;
39994;SDS011;25686;51.908;10.418;2023-03-01T05:22:44;16.53;;;8.07;;
39994;SDS011;25686;51.908;10.418;2023-03-01T05:24:45;15.93;;;7.63;;
39994;SDS011;25686;51.908;10.418;2023-03-01T05:26:46;21.07;;;8.60;;
39994;SDS011;25686;51.908;10.418;2023-03-01T05:28:48;17.13;;;8.30;;
39994;SDS011;25686;51.908;10.418;2023-03-01T05:30:49;15.83;;;8.63;;
39994;SDS011;25686;51.908;10.418;2023-03-01T05:32:51;16.83;;;7.97;;
39994;SDS011;25686;51.908;10.418;2023-03-01T05:34:55;15.70;;;8.07;;
39994;SDS011;25686;51.908;10.418;2023-03-01T05:36:56;15.07;;;7.87;;
39994;SDS011;25686;51.908;10.418;2023-03-01T05:38:57;16.77;;;7.97;;
39994;SDS011;25686;51.908;10.418;2023-03-01T05:40:58;21.50;;;8.43;;
39994;SDS011;25686;51.908;10.418;2023-03-01T05:42:59;16.20;;;7.40;;
39994;SDS011;25686;51.908;10.418;2023-03-01T05:45:00;17.27;;;8.17;;
39994;SDS011;25686;51.908;10.418;2023-03-01T05:47:01;15.40;;;7.37;;
39994;SDS011;25686;51.908;10.418;2023-03-01T05:49:02;16.03;;;8.20;;
39994;SDS011;25686;51.908;10.418;2023-03-01T05:51:04;14.33;;;7.50;;
39994;SDS011;25686;51.908;10.418;2023-03-01T05:53:15;13.37;;;6.83;;
39994;SDS011;25686;51.908;10.418;2023-03-01T05:55:17;17.77;;;8.63;;
39994;SDS011;25686;51.908;10.418;2023-03-01T05:57:18;17.47;;;7.87;;
39994;SDS011;25686;51.908;10.418;2023-03-01T05:59:20;17.50;;;8.10;;
39994;SDS011;25686;51.908;10.418;2023-03-01T06:01:21;15.67;;;7.93;;
39994;SDS011;25686;51.908;10.418;2023-03-01T06:03:21;22.33;;;8.70;;
39994;SDS011;25686;51.908;10.418;2023-03-01T06:05:23;17.03;;;8.43;;
39994;SDS011;25686;51.908;10.418;2023-03-01T06:07:24;19.87;;;9.27;;
39994;SDS011;25686;51.908;10.418;2023-03-01T06:09:25;18.60;;;8.70;;
39994;SDS011;25686;51.908;10.418;2023-03-01T06:11:25;18.73;;;8.67;;
39994;SDS011;25686;51.908;10.418;2023-03-01T06:13:26;18.40;;;8.60;;
39994;SDS011;25686;51.908;10.418;2023-03-01T06:15:27;19.20;;;8.83;;
39994;SDS011;25686;51.908;10.418;2023-03-01T06:17:29;22.53;;;9.97;;
39994;SDS011;25686;51.908;10.418;2023-03-01T06:19:30;18.40;;;9.00;;
39994;SDS011;25686;51.908;10.418;2023-03-01T06:21:31;16.73;;;8.03;;
39994;SDS011;25686;51.908;10.418;2023-03-01T06:23:32;19.73;;;8.87;;
39994;SDS011;25686;51.908;10.418;2023-03-01T06:25:33;17.83;;;8.63;;
39994;SDS011;25686;51.908;10.418;2023-03-01T06:27:34;16.57;;;8.57;;
39994;SDS011;25686;51.908;10.418;2023-03-01T06:29:35;16.10;;;8.00;;
39994;SDS011;25686;51.908;10.418;2023-03-01T06:31:36;17.63;;;9.33;;
39994;SDS011;25686;51.908;10.418;2023-03-01T06:33:37;16.00;;;8.03;;
39994;SDS011;25686;51.908;10.418;2023-03-01T06:35:38;17.70;;;8.43;;
39994;SDS011;25686;51.908;10.418;2023-03-01T06:37:39;16.63;;;8.87;;
39994;SDS011;25686;51.908;10.418;2023-03-01T06:39:40;15.20;;;8.20;;
39994;SDS011;25686;51.908;10.418;2023-03-01T06:41:41;19.10;;;8.17;;
39994;SDS011;25686;51.908;10.418;2023-03-01T06:43:42;18.80;;;8.23;;
39994;SDS011;25686;51.908;10.418;2023-03-01T06:45:43;14.93;;;7.73;;
39994;SDS011;25686;51.908;10.418;2023-03-01T06:47:44;15.07;;;7.93;;
39994;SDS011;25686;51.908;10.418;2023-03-01T06:49:45;13.73;;;7.50;;
39994;SDS011;25686;51.908;10.418;2023-03-01T06:51:46;12.97;;;7.40;;
39994;SDS011;25686;51.908;10.418;2023-03-01T06:53:47;12.60;;;6.30;;
39994;SDS011;25686;51.908;10.418;2023-03-01T06:55:53;12.73;;;6.87;;
39994;SDS011;25686;51.908;10.418;2023-03-01T06:57:55;16.23;;;7.50;;
39994;SDS011;25686;51.908;10.418;2023-03-01T06:59:56;12.40;;;7.07;;
39994;SDS011;25686;51.908;10.418;2023-03-01T07:01:57;11.43;;;6.27;;
39994;SDS011;25686;51.908;10.418;2023-03-01T07:03:58;13.93;;;6.43;;
39994;SDS011;25686;51.908;10.418;2023-03-01T07:05:59;10.77;;;6.37;;
39994;SDS011;25686;51.908;10.418;2023-03-01T07:08:00;9.13;;;5.43;;
39994;SDS011;25686;51.908;10.418;2023-03-01T07:10:01;10.03;;;5.80;;
39994;SDS011;25686;51.908;10.418;2023-03-01T07:12:02;12.53;;;5.53;;
39994;SDS011;25686;51.908;10.418;2023-03-01T07:14:03;11.07;;;5.77;;
39994;SDS011;25686;51.908;10.418;2023-03-01T07:16:05;10.00;;;6.30;;
39994;SDS011;25686;51.908;10.418;2023-03-01T07:18:06;11.93;;;7.07;;
39994;SDS011;25686;51.908;10.418;2023-03-01T07:20:07;12.70;;;6.93;;
39994;SDS011;25686;51.908;10.418;2023-03-01T07:22:08;12.50;;;7.20;;
39994;SDS011;25686;51.908;10.418;2023-03-01T07:24:09;13.53;;;6.47;;
39994;SDS011;25686;51.908;10.418;2023-03-01T07:26:10;12.13;;;7.03;;
39994;SDS011;25686;51.908;10.418;2023-03-01T07:28:11;13.27;;;7.50;;
39994;SDS011;25686;51.908;10.418;2023-03-01T07:30:12;15.97;;;7.93;;
39994;SDS011;25686;51.908;10.418;2023-03-01T07:32:13;17.38;;;8.63;;
39994;SDS011;25686;51.908;10.418;2023-03-01T07:34:14;17.05;;;8.98;;
39994;SDS011;25686;51.908;10.418;2023-03-01T07:36:15;14.75;;;9.07;;
39994;SDS011;25686;51.908;10.418;2023-03-01T07:38:16;15.05;;;8.85;;
39994;SDS011;25686;51.908;10.418;2023-03-01T07:40:17;18.25;;;8.85;;
39994;SDS011;25686;51.908;10.418;2023-03-01T07:42:18;13.50;;;8.18;;
39994;SDS011;25686;51.908;10.418;2023-03-01T07:44:19;13.82;;;8.40;;
39994;SDS011;25686;51.908;10.418;2023-03-01T07:46:20;12.90;;;8.23;;
39994;SDS011;25686;51.908;10.418;2023-03-01T07:48:21;11.00;;;7.53;;
39994;SDS011;25686;51.908;10.418;2023-03-01T07:50:22;12.82;;;8.02;;
39994;SDS011;25686;51.908;10.418;2023-03-01T07:52:23;11.50;;;8.18;;
39994;SDS011;25686;51.908;10.418;2023-03-01T07:54:24;12.25;;;8.20;;
39994;SDS011;25686;51.908;10.418;2023-03-01T07:56:26;11.73;;;8.90;;
39994;SDS011;25686;51.908;10.418;2023-03-01T07:58:27;11.85;;;7.93;;
39994;SDS011;25686;51.908;10.418;2023-03-01T08:00:28;12.82;;;8.95;;
39994;SDS011;25686;51.908;10.418;2023-03-01T08:02:28;13.82;;;9.75;;
39994;SDS011;25686;51.908;10.418;2023-03-01T08:04:29;15.88;;;9.20;;
39994;SDS011;25686;51.908;10.418;2023-03-01T08:06:30;12.63;;;8.82;;
39994;SDS011;25686;51.908;10.418;2023-03-01T08:08:31;11.20;;;8.52;;
39994;SDS011;25686;51.908;10.418;2023-03-01T08:10:32;12.60;;;9.15;;
39994;SDS011;25686;51.908;10.418;2023-03-01T08:12:33;14.52;;;9.50;;
39994;SDS011;25686;51.908;10.418;2023-03-01T08:14:34;13.98;;;8.95;;
39994;SDS011;25686;51.908;10.418;2023-03-01T08:16:35;13.57;;;9.43;;
39994;SDS011;25686;51.908;10.418;2023-03-01T08:18:37;14.60;;;9.77;;
39994;SDS011;25686;51.908;10.418;2023-03-01T08:20:38;13.85;;;9.45;;
39994;SDS011;25686;51.908;10.418;2023-03-01T08:22:38;17.42;;;10.00;;
39994;SDS011;25686;51.908;10.418;2023-03-01T08:24:39;14.15;;;9.45;;
39994;SDS011;25686;51.908;10.418;2023-03-01T08:26:40;13.50;;;9.18;;
39994;SDS011;25686;51.908;10.418;2023-03-01T08:28:42;15.70;;;9.30;;
39994;SDS011;25686;51.908;10.418;2023-03-01T08:30:43;14.18;;;8.98;;
39994;SDS011;25686;51.908;10.418;2023-03-01T08:32:44;14.07;;;9.60;;
39994;SDS011;25686;51.908;10.418;2023-03-01T08:34:48;13.98;;;9.13;;
39994;SDS011;25686;51.908;10.418;2023-03-01T08:36:49;11.98;;;8.02;;
39994;SDS011;25686;51.908;10.418;2023-03-01T08:38:53;11.80;;;8.23;;
39994;SDS011;25686;51.908;10.418;2023-03-01T08:40:55;16.65;;;8.88;;
39994;SDS011;25686;51.908;10.418;2023-03-01T08:42:56;14.48;;;8.70;;
39994;SDS011;25686;51.908;10.418;2023-03-01T08:44:58;10.35;;;7.88;;
39994;SDS011;25686;51.908;10.418;2023-03-01T08:46:59;11.75;;;8.68;;
39994;SDS011;25686;51.908;10.418;2023-03-01T08:49:00;14.95;;;8.23;;
39994;SDS011;25686;51.908;10.418;2023-03-01T08:51:08;12.40;;;8.23;;
39994;SDS011;25686;51.908;10.418;2023-03-01T08:53:09;13.10;;;8.13;;
39994;SDS011;25686;51.908;10.418;2023-03-01T08:55:09;11.07;;;8.38;;
39994;SDS011;25686;51.908;10.418;2023-03-01T08:57:10;10.63;;;8.20;;
39994;SDS011;25686;51.908;10.418;2023-03-01T08:59:13;11.32;;;8.00;;
39994;SDS011;25686;51.908;10.418;2023-03-01T09:01:15;11.70;;;7.70;;
39994;SDS011;25686;51.908;10.418;2023-03-01T09:03:16;10.68;;;8.07;;
39994;SDS011;25686;51.908;10.418;2023-03-01T09:05:17;11.68;;;7.75;;
39994;SDS011;25686;51.908;10.418;2023-03-01T09:07:18;11.52;;;7.65;;
39994;SDS011;25686;51.908;10.418;2023-03-01T09:09:19;12.52;;;7.70;;
39994;SDS011;25686;51.908;10.418;2023-03-01T09:11:21;11.43;;;7.68;;
39994;SDS011;25686;51.908;10.418;2023-03-01T09:13:22;19.27;;;7.97;;
39994;SDS011;25686;51.908;10.418;2023-03-01T09:15:27;10.13;;;7.93;;
39994;SDS011;25686;51.908;10.418;2023-03-01T09:17:28;10.27;;;8.10;;
39994;SDS011;25686;51.908;10.418;2023-03-01T09:19:29;14.73;;;8.30;;
39994;SDS011;25686;51.908;10.418;2023-03-01T09:21:30;12.70;;;7.97;;
39994;SDS011;25686;51.908;10.418;2023-03-01T09:23:31;9.45;;;7.70;;
39994;SDS011;25686;51.908;10.418;2023-03-01T09:25:32;14.50;;;8.23;;
39994;SDS011;25686;51.908;10.418;2023-03-01T09:27:34;11.00;;;8.38;;
39994;SDS011;25686;51.908;10.418;2023-03-01T09:29:36;9.05;;;7.13;;
39994;SDS011;25686;51.908;10.418;2023-03-01T09:31:37;9.52;;;7.90;;
39994;SDS011;25686;51.908;10.418;2023-03-01T09:33:37;10.40;;;8.38;;
39994;SDS011;25686;51.908;10.418;2023-03-01T09:35:39;10.50;;;8.20;;
39994;SDS011;25686;51.908;10.418;2023-03-01T09:37:45;9.93;;;8.05;;
39994;SDS011;25686;51.908;10.418;2023-03-01T09:39:46;11.88;;;8.43;;
39994;SDS011;25686;51.908;10.418;2023-03-01T09:46:17;14.88;;;8.35;;
39994;SDS011;25686;51.908;10.418;2023-03-01T09:48:20;9.02;;;7.95;;
39994;SDS011;25686;51.908;10.418;2023-03-01T09:50:23;10.10;;;8.35;;
39994;SDS011;25686;51.908;10.418;2023-03-01T09:52:29;13.18;;;8.15;;
39994;SDS011;25686;51.908;10.418;2023-03-01T09:54:31;9.93;;;7.75;;
39994;SDS011;25686;51.908;10.418;2023-03-01T10:03:26;14.77;;;7.22;;
39994;SDS011;25686;51.908;10.418;2023-03-01T10:05:34;10.40;;;7.35;;
39994;SDS011;25686;51.908;10.418;2023-03-01T10:09:55;10.23;;;7.65;;
39994;SDS011;25686;51.908;10.418;2023-03-01T10:11:56;9.02;;;7.45;;
39994;SDS011;25686;51.908;10.418;2023-03-01T10:14:05;10.50;;;8.02;;
39994;SDS011;25686;51.908;10.418;2023-03-01T10:16:15;9.27;;;7.47;;
39994;SDS011;25686;51.908;10.418;2023-03-01T10:18:18;10.77;;;7.55;;
39994;SDS011;25686;51.908;10.418;2023-03-01T10:22:26;9.82;;;7.70;;
39994;SDS011;25686;51.908;10.418;2023-03-01T10:24:32;10.45;;;7.43;;
39994;SDS011;25686;51.908;10.418;2023-03-01T10:26:38;8.32;;;7.32;;
39994;SDS011;25686;51.908;10.418;2023-03-01T10:30:44;10.45;;;7.35;;
39994;SDS011;25686;51.908;10.418;2023-03-01T10:32:46;8.50;;;7.40;;
39994;SDS011;25686;51.908;10.418;2023-03-01T10:34:49;10.85;;;7.28;;
39994;SDS011;25686;51.908;10.418;2023-03-01T10:36:50;11.65;;;7.57;;
39994;SDS011;25686;51.908;10.418;2023-03-01T10:38:54;10.13;;;7.53;;
39994;SDS011;25686;51.908;10.418;2023-03-01T10:40:57;9.52;;;7.70;;
39994;SDS011;25686;51.908;10.418;2023-03-01T10:42:59;9.70;;;7.45;;
39994;SDS011;25686;51.908;10.418;2023-03-01T10:45:14;11.23;;;7.85;;
39994;SDS011;25686;51.908;10.418;2023-03-01T10:49:23;9.27;;;7.35;;
39994;SDS011;25686;51.908;10.418;2023-03-01T10:51:25;10.70;;;7.57;;
39994;SDS011;25686;51.908;10.418;2023-03-01T10:53:29;11.20;;;7.70;;
39994;SDS011;25686;51.908;10.418;2023-03-01T10:57:37;9.05;;;7.32;;
39994;SDS011;25686;51.908;10.418;2023-03-01T10:59:40;8.75;;;7.38;;
39994;SDS011;25686;51.908;10.418;2023-03-01T11:01:41;9.85;;;7.35;;
39994;SDS011;25686;51.908;10.418;2023-03-01T11:03:42;12.70;;;8.00;;
39994;SDS011;25686;51.908;10.418;2023-03-01T11:08:11;9.85;;;7.85;;
39994;SDS011;25686;51.908;10.418;2023-03-01T11:10:12;12.13;;;7.70;;
39994;SDS011;25686;51.908;10.418;2023-03-01T11:12:17;10.90;;;7.55;;
39994;SDS011;25686;51.908;10.418;2023-03-01T11:14:20;10.05;;;7.10;;
39994;SDS011;25686;51.908;10.418;2023-03-01T11:16:22;11.13;;;7.25;;
39994;SDS011;25686;51.908;10.418;2023-03-01T11:18:24;10.77;;;7.90;;
39994;SDS011;25686;51.908;10.418;2023-03-01T11:20:29;11.10;;;7.90;;
39994;SDS011;25686;51.908;10.418;2023-03-01T11:22:31;10.10;;;7.40;;
39994;SDS011;25686;51.908;10.418;2023-03-01T11:24:40;12.52;;;7.63;;
39994;SDS011;25686;51.908;10.418;2023-03-01T11:26:42;13.00;;;7.75;;
39994;SDS011;25686;51.908;10.418;2023-03-01T11:28:46;13.60;;;8.55;;
39994;SDS011;25686;51.908;10.418;2023-03-01T11:30:51;13.60;;;7.95;;
39994;SDS011;25686;51.908;10.418;2023-03-01T11:39:38;13.93;;;7.97;;
39994;SDS011;25686;51.908;10.418;2023-03-01T11:41:40;11.07;;;7.18;;
39994;SDS011;25686;51.908;10.418;2023-03-01T11:43:50;12.73;;;7.55;;
39994;SDS011;25686;51.908;10.418;2023-03-01T11:45:57;16.63;;;7.93;;
39994;SDS011;25686;51.908;10.418;2023-03-01T11:48:07;12.48;;;7.35;;
39994;SDS011;25686;51.908;10.418;2023-03-01T11:50:26;13.70;;;7.85;;
39994;SDS011;25686;51.908;10.418;2023-03-01T11:52:41;11.65;;;7.68;;
39994;SDS011;25686;51.908;10.418;2023-03-01T11:59:22;15.65;;;7.68;;
39994;SDS011;25686;51.908;10.418;2023-03-01T12:03:30;12.87;;;7.03;;
39994;SDS011;25686;51.908;10.418;2023-03-01T12:07:45;14.70;;;7.90;;
39994;SDS011;25686;51.908;10.418;2023-03-01T12:09:49;13.33;;;7.43;;
39994;SDS011;25686;51.908;10.418;2023-03-01T12:12:02;14.20;;;7.70;;
39994;SDS011;25686;51.908;10.418;2023-03-01T12:14:26;18.20;;;7.30;;
39994;SDS011;25686;51.908;10.418;2023-03-01T12:27:23;14.77;;;7.60;;
39994;SDS011;25686;51.908;10.418;2023-03-01T12:29:26;12.63;;;7.30;;
39994;SDS011;25686;51.908;10.418;2023-03-01T12:31:44;10.87;;;6.73;;
39994;SDS011;25686;51.908;10.418;2023-03-01T12:34:03;16.97;;;7.40;;
39994;SDS011;25686;51.908;10.418;2023-03-01T12:38:21;11.37;;;6.80;;
39994;SDS011;25686;51.908;10.418;2023-03-01T12:40:32;17.03;;;7.60;;
39994;SDS011;25686;51.908;10.418;2023-03-01T12:49:08;14.53;;;7.83;;
39994;SDS011;25686;51.908;10.418;2023-03-01T12:51:11;13.93;;;7.37;;
39994;SDS011;25686;51.908;10.418;2023-03-01T12:53:24;13.93;;;6.77;;
39994;SDS011;25686;51.908;10.418;2023-03-01T12:57:28;12.37;;;6.80;;
39994;SDS011;25686;51.908;10.418;2023-03-01T12:59:42;14.50;;;7.50;;
39994;SDS011;25686;51.908;10.418;2023-03-01T13:01:49;16.50;;;7.60;;
39994;SDS011;25686;51.908;10.418;2023-03-01T13:06:21;13.67;;;6.90;;